Fire Dart — FIRE — position and weather

sailwx.info

Track history (hours):
 
Tides and Currents Weather Stations Pressure Air Temp Water Temp Dewpoint Dewpoint Depression Visibility Wind Speed Wind Dir Waves Ship Positions

Fire Dart

Last reported at 2018-Aug-15 16:54 UTC. Time now 2018-Aug-16 08:44 UTC.
Position N 29°41' W 094°59'.

Length 14 m.

Type: High speed craft. MMSI: 235094361.

Date/timePositionNaut miles runAvg speedWind from/ knotsBaromVisibWave heightAir tempDewpointWater temp
2018-Aug-15 16:54N 29°41' W 094°59'513.7
2018-Aug-15 16:30N 29°36' W 094°58'2 3.8
2018-Aug-15 16:01N 29°34' W 094°59'819218.6
2018-Aug-15 12:16N 25°47' W 080°11'820491.6
2018-Aug-15 10:36N 29°41' W 094°59'0 0.0
2018-Aug-14 15:04N 29°41' W 094°59'113.9
2018-Aug-14 14:59N 29°40' W 094°58'713.9
2018-Aug-14 14:30N 29°33' W 095°00'  
2018-Aug-12 07:10N 25°47' W 080°11'0 0.0
2018-Aug-12 06:58N 25°47' W 080°11'0 0.0
2018-Aug-12 06:22N 25°47' W 080°11'0 0.0
2018-Aug-12 05:58N 25°47' W 080°11'0 0.0
2018-Aug-12 05:22N 25°47' W 080°11'0 0.0
2018-Aug-12 04:58N 25°47' W 080°11'0 0.0
2018-Aug-12 04:28N 25°47' W 080°11'0 0.0
2018-Aug-12 03:58N 25°47' W 080°11'0 0.0
2018-Aug-12 03:19N 25°47' W 080°11'0 0.0
2018-Aug-11 08:34N 25°47' W 080°11'0 0.0
2018-Aug-11 08:31N 25°47' W 080°11'0 0.0
2018-Aug-11 08:01N 25°47' W 080°11'0 0.0
2018-Aug-11 07:30N 25°47' W 080°11'0 0.0
2018-Aug-11 07:00N 25°47' W 080°11'0 0.0
2018-Aug-11 06:30N 25°47' W 080°11'0 0.0
2018-Aug-11 06:00N 25°47' W 080°11'0 0.0
2018-Aug-11 05:30N 25°47' W 080°11'0 0.0
2018-Aug-11 01:13N 25°47' W 080°11'82092.3
2018-Aug-10 16:20N 29°41' W 094°59'410.0
2018-Aug-10 15:56N 29°37' W 094°58'3 5.5
2018-Aug-10 15:26N 29°39' W 094°59'820391.7
2018-Aug-10 13:20N 25°47' W 080°11'1 2.8
2018-Aug-10 12:59N 25°46' W 080°10'8213727.1
2018-Aug-10 12:46N 29°41' W 094°59'0 0.0
2018-Aug-10 12:19N 29°41' W 094°59'0 0.0
2018-Aug-10 04:28N 29°41' W 094°59'0 0.0
2018-Aug-10 03:34N 29°41' W 094°59'0 0.0
2018-Aug-10 03:19N 29°41' W 094°59'0 0.0
2018-Aug-10 02:49N 29°41' W 094°59'0 0.0
2018-Aug-10 02:25N 29°41' W 094°59'0 0.0
2018-Aug-09 14:14N 29°41' W 094°60'82121.4
2018-Aug-07 23:53N 25°47' W 080°11'2 4.8
2018-Aug-07 23:30N 25°45' W 080°11'821197.6
2018-Aug-07 19:20N 29°41' W 094°59'412.2
2018-Aug-07 19:00N 29°37' W 095°00'3 4.0
2018-Aug-07 18:21N 29°36' W 094°57'3 8.3
2018-Aug-07 18:00N 29°34' W 094°55'0 0.6
2018-Aug-07 17:30N 29°34' W 094°56'4 8.6
2018-Aug-07 17:00N 29°37' W 094°58'819963.2
2018-Aug-07 16:09N 25°47' W 080°11'8209838.5
2018-Aug-07 16:04N 29°41' W 094°59'114.3
2018-Aug-07 16:00N 29°40' W 094°59'8211478575.5
2018-Aug-07 16:00N 25°46' W 080°09'2 0.1
2018-Aug-06 23:42N 25°47' W 080°11'0 0.0
2018-Aug-06 23:20N 25°47' W 080°11'0 0.0
2018-Aug-06 12:33N 25°47' W 080°11'  
Track history (hours):
 
Tides and Currents Weather Stations Pressure Air Temp Water Temp Dewpoint Dewpoint Depression Visibility Wind Speed Wind Dir Waves Ship Positions

Fire Dart

Last reported at 2018-Aug-15 16:54 UTC. Time now 2018-Aug-16 08:44 UTC.
Position N 29°41' W 094°59'.

Length 14 m.

Type: High speed craft. MMSI: 235094361.

Date/timePositionNaut miles runAvg speedWind from/ knotsBaromVisibWave heightAir tempDewpointWater temp
2018-Aug-15 16:54N 29°41' W 094°59'513.7
2018-Aug-15 16:30N 29°36' W 094°58'2 3.8
2018-Aug-15 16:01N 29°34' W 094°59'819218.6
2018-Aug-15 12:16N 25°47' W 080°11'820491.6
2018-Aug-15 10:36N 29°41' W 094°59'0 0.0
2018-Aug-14 15:04N 29°41' W 094°59'113.9
2018-Aug-14 14:59N 29°40' W 094°58'713.9
2018-Aug-14 14:30N 29°33' W 095°00'  
2018-Aug-12 07:10N 25°47' W 080°11'0 0.0
2018-Aug-12 06:58N 25°47' W 080°11'0 0.0
2018-Aug-12 06:22N 25°47' W 080°11'0 0.0
2018-Aug-12 05:58N 25°47' W 080°11'0 0.0
2018-Aug-12 05:22N 25°47' W 080°11'0 0.0
2018-Aug-12 04:58N 25°47' W 080°11'0 0.0
2018-Aug-12 04:28N 25°47' W 080°11'0 0.0
2018-Aug-12 03:58N 25°47' W 080°11'0 0.0
2018-Aug-12 03:19N 25°47' W 080°11'0 0.0
2018-Aug-11 08:34N 25°47' W 080°11'0 0.0
2018-Aug-11 08:31N 25°47' W 080°11'0 0.0
2018-Aug-11 08:01N 25°47' W 080°11'0 0.0
2018-Aug-11 07:30N 25°47' W 080°11'0 0.0
2018-Aug-11 07:00N 25°47' W 080°11'0 0.0
2018-Aug-11 06:30N 25°47' W 080°11'0 0.0
2018-Aug-11 06:00N 25°47' W 080°11'0 0.0
2018-Aug-11 05:30N 25°47' W 080°11'0 0.0
2018-Aug-11 01:13N 25°47' W 080°11'82092.3
2018-Aug-10 16:20N 29°41' W 094°59'410.0
2018-Aug-10 15:56N 29°37' W 094°58'3 5.5
2018-Aug-10 15:26N 29°39' W 094°59'820391.7
2018-Aug-10 13:20N 25°47' W 080°11'1 2.8
2018-Aug-10 12:59N 25°46' W 080°10'8213727.1
2018-Aug-10 12:46N 29°41' W 094°59'0 0.0
2018-Aug-10 12:19N 29°41' W 094°59'0 0.0
2018-Aug-10 04:28N 29°41' W 094°59'0 0.0
2018-Aug-10 03:34N 29°41' W 094°59'0 0.0
2018-Aug-10 03:19N 29°41' W 094°59'0 0.0
2018-Aug-10 02:49N 29°41' W 094°59'0 0.0
2018-Aug-10 02:25N 29°41' W 094°59'0 0.0
2018-Aug-09 14:14N 29°41' W 094°60'82121.4
2018-Aug-07 23:53N 25°47' W 080°11'2 4.8
2018-Aug-07 23:30N 25°45' W 080°11'821197.6
2018-Aug-07 19:20N 29°41' W 094°59'412.2
2018-Aug-07 19:00N 29°37' W 095°00'3 4.0
2018-Aug-07 18:21N 29°36' W 094°57'3 8.3
2018-Aug-07 18:00N 29°34' W 094°55'0 0.6
2018-Aug-07 17:30N 29°34' W 094°56'4 8.6
2018-Aug-07 17:00N 29°37' W 094°58'819963.2
2018-Aug-07 16:09N 25°47' W 080°11'8209838.5
2018-Aug-07 16:04N 29°41' W 094°59'114.3
2018-Aug-07 16:00N 29°40' W 094°59'8211478575.5
2018-Aug-07 16:00N 25°46' W 080°09'2 0.1
2018-Aug-06 23:42N 25°47' W 080°11'0 0.0
2018-Aug-06 23:20N 25°47' W 080°11'0 0.0
2018-Aug-06 12:33N 25°47' W 080°11'  

Dump ship's entire track history